Airfield :
LOGIN :

Register | Disclaimer

   EN    FR    IT 

 










Legend :    VFR   Marginal VFR   IFR   Intensive IFR   Very Intensive IFR
Visi :
Ceiling :
>= 8 km
>= 3000ft
5 to 8 km
1000 to 3000 ft
1500m to 5 km
500 to 1000 ft
800 to 1500m
200 to 500 ft
< 800m
< 200 ft
Symbols :   Thunderstorms  Fog  Heavy snow  Heavy precipitations  Wind > 20 kt
SIGMETs :     Misc.  Thunderstorms  Icing  Turbulence  Mountain Waves  Volcanic Ashes







- Airport Elevation : 138 ft
- IATA code : BIO


LEBB - Bilbao

CURRENT METAR :
  • 252330Z AUTO 00000KT 9999 BKN050 09/06 Q1028

EXPIRED METARs :
  • 252300Z AUTO 00000KT 9999 FEW045/// BKN055/// 09/06 Q1028
  • 252230Z 00000KT 9999 FEW024 SCT035 BKN050 08/06 Q1028 NOSIG
  • 252200Z VRB02KT 9999 SCT030 BKN045 09/06 Q1028 NOSIG
  • 252130Z 00000KT 9999 FEW040 SCT050 07/05 Q1029 NOSIG
  • 252100Z VRB01KT 9999 FEW040 08/04 Q1029 NOSIG

TAF TAF LEBB
Valid from the 26 at 00:00 until the 27 at 00:00 UTC


252300Z 2600/2624 09006KT 9999 FEW030 TX14/2614Z TN05/2607Z
PROB40
TEMPO 2611/2619 03012KT
No reported NOTAMs for that airfield.
1 SIGMET reported for the Madrid FIR (LECM) :
 
Severe turbulence
LECM SIGMET 1 VALID 252015/260000 LEVA
LECM MADRID FIR/UIR SEV TURB FCST WI N3936 W00730 - N3955 W00103 - N3903 W00119 - N3849 W00702 - N3936 W00730 FL220/300 STNR WKN=



MET'MAP, your aeronautical weather chart ! - Copyright ORBIFLY December 2007 - Disclaimer

ORBIFLY MET'MAP TEAM :

Programming & Development : Alexandra Zaïnal
Concept & Development : Baudouin d'Aumeries
Co-Development & Prog : Marc-Olivier Méhu
Technical & hardware support : Manuel Goepfert

Contact : metmap@orbifly.com




SOURCES & CREDITS :

   NOAA